Time;durP1;ratioP1;P1;durP2;ratioP2;P2;SDS_P1;SDS_P2;PMS_P1;PMS_P2;Temp;Humidity;BMP_temperature;BMP_pressure;BME280_temperature;BME280_humidity;BME280_pressure;Samples;Min_cycle;Max_cycle;Signal;HPM_P1;HPM_P2
2023/08/03 00:02:17;;;;;;;;;;;;;;;19.57;63.58;98196.09;4984243;28;6915;-74
2023/08/03 00:04:43;;;;;;;;;;;;;;;19.57;63.49;98194.34;4976640;28;7049;-74
2023/08/03 00:07:08;;;;;;;;;;;;;;;19.57;63.60;98204.72;4975337;28;6999;-74
2023/08/03 00:09:34;;;;;;;;;;;;;;;19.56;64.02;98210.81;4968533;28;6779;-75
2023/08/03 00:11:59;;;;;;;;;;;;;;;19.55;63.87;98206.50;4968936;28;6792;-74
2023/08/03 00:14:25;;;;;;;;;;;;;;;19.55;63.87;98200.44;4963368;28;6776;-75
2023/08/03 00:16:50;;;;;;;;;;;;;;;19.56;63.92;98207.38;4977258;28;6792;-74
2023/08/03 00:19:16;;;;;;;;;;;;;;;19.57;64.18;98203.88;4970864;28;6860;-74
2023/08/03 00:21:41;;;;;;;;;;;;;;;19.59;64.22;98201.22;4974391;28;6784;-74
2023/08/03 00:24:07;;;;;;;;;;;;;;;19.62;64.16;98198.59;4973037;28;6784;-74
2023/08/03 00:26:33;;;;;;;;;;;;;;;19.65;64.31;98207.16;4978318;28;7142;-74
2023/08/03 00:28:59;;;;;;;;;;;;;;;19.68;64.32;98219.19;4969819;28;6842;-74
2023/08/03 00:31:24;;;;;;;;;;;;;;;19.68;63.91;98227.00;4965973;28;7219;-74
2023/08/03 00:33:50;;;;;;;;;;;;;;;19.68;63.83;98219.19;4973114;28;6772;-74
2023/08/03 00:36:15;;;;;;;;;;;;;;;19.70;63.98;98236.47;4967200;28;6991;-74
2023/08/03 00:38:41;;;;;;;;;;;;;;;19.70;64.33;98230.41;4989189;28;6796;-73
2023/08/03 00:41:06;;;;;;;;;;;;;;;19.71;64.05;98232.13;4975585;28;6784;-73
2023/08/03 00:43:32;;;;;;;;;;;;;;;19.70;64.47;98248.59;4975394;28;6788;-73
2023/08/03 00:45:57;;;;;;;;;;;;;;;19.69;64.63;98249.50;4974708;28;6866;-73
2023/08/03 00:48:22;;;;;;;;;;;;;;;19.69;63.99;98255.56;4975536;28;7349;-73
2023/08/03 00:50:48;;;;;;;;;;;;;;;19.68;64.23;98274.63;4971287;28;6800;-73
2023/08/03 00:53:13;;;;;;;;;;;;;;;19.67;64.46;98264.25;4972153;28;6787;-73
2023/08/03 00:55:39;;;;;;;;;;;;;;;19.66;64.02;98267.75;4978488;28;6815;-73
2023/08/03 00:58:05;;;;;;;;;;;;;;;19.65;64.07;98268.66;4974563;28;7358;-73
2023/08/03 01:00:30;;;;;;;;;;;;;;;19.64;64.29;98260.00;4974447;28;6889;-72
2023/08/03 01:02:56;;;;;;;;;;;;;;;19.62;64.52;98269.56;4971692;28;7169;-73
2023/08/03 01:05:22;;;;;;;;;;;;;;;19.63;64.54;98273.88;4970807;28;7954;-73
2023/08/03 01:07:48;;;;;;;;;;;;;;;19.66;64.31;98276.41;4959693;28;6911;-72
2023/08/03 01:10:13;;;;;;;;;;;;;;;19.68;63.99;98285.03;4981977;28;6792;-73
2023/08/03 01:12:39;;;;;;;;;;;;;;;19.68;63.99;98287.63;4966348;28;7070;-73
2023/08/03 01:15:05;;;;;;;;;;;;;;;19.70;63.57;98291.03;4966306;28;10986;-73
2023/08/03 01:17:31;;;;;;;;;;;;;;;19.70;63.60;98287.56;4970978;28;7188;-73
2023/08/03 01:19:56;;;;;;;;;;;;;;;19.71;63.81;98284.09;4993599;28;6807;-74
2023/08/03 01:22:22;;;;;;;;;;;;;;;19.74;63.56;98288.34;4974814;28;7039;-73
2023/08/03 01:24:47;;;;;;;;;;;;;;;19.74;63.67;98303.94;4994400;28;6857;-75
2023/08/03 01:27:13;;;;;;;;;;;;;;;19.75;63.93;98301.31;4975760;28;6784;-73
2023/08/03 01:29:38;;;;;;;;;;;;;;;19.79;63.97;98308.16;4961939;28;7410;-73
2023/08/03 01:32:04;;;;;;;;;;;;;;;19.83;63.84;98317.59;4971689;28;7197;-73
2023/08/03 01:34:30;;;;;;;;;;;;;;;19.90;63.74;98323.50;4970348;28;7231;-73
2023/08/03 01:36:56;;;;;;;;;;;;;;;19.94;63.56;98311.31;4969586;28;6864;-73
2023/08/03 01:39:24;;;;;;;;;;;;;;;19.97;63.10;98324.25;4960510;28;7222;-72
2023/08/03 01:41:50;;;;;;;;;;;;;;;20.01;63.70;98319.81;4960180;28;6999;-73
2023/08/03 01:44:29;;;;;;;;;;;;;;;20.05;63.63;98324.91;4985553;28;7097;-73
2023/08/03 01:46:56;;;;;;;;;;;;;;;20.05;63.02;98337.09;4969907;28;6823;-72
2023/08/03 01:49:24;;;;;;;;;;;;;;;20.06;63.37;98330.97;4981891;28;6800;-73
2023/08/03 01:51:50;;;;;;;;;;;;;;;20.06;63.00;98339.63;4963397;28;6990;-74
2023/08/03 01:54:16;;;;;;;;;;;;;;;20.06;63.11;98336.19;4977272;28;6978;-73
2023/08/03 01:56:42;;;;;;;;;;;;;;;20.08;63.01;98331.78;4980983;28;6812;-74
2023/08/03 01:59:07;;;;;;;;;;;;;;;20.09;63.48;98344.78;4975731;28;6800;-73
2023/08/03 02:01:33;;;;;;;;;;;;;;;20.10;62.71;98338.69;4968097;28;7858;-73
2023/08/03 02:03:58;;;;;;;;;;;;;;;20.12;62.85;98343.81;4954815;28;7229;-73
2023/08/03 02:06:24;;;;;;;;;;;;;;;20.12;62.64;98346.41;4978546;28;6968;-73
2023/08/03 02:08:49;;;;;;;;;;;;;;;20.12;62.80;98352.50;4976563;28;6996;-73
2023/08/03 02:11:15;;;;;;;;;;;;;;;20.15;63.07;98355.91;4972129;28;6838;-73
2023/08/03 02:13:40;;;;;;;;;;;;;;;20.13;62.77;98366.31;4971926;28;7109;-72
2023/08/03 02:16:11;;;;;;;;;;;;;;;20.10;62.43;98359.47;4973447;28;6800;-73
2023/08/03 02:18:41;;;;;;;;;;;;;;;20.10;62.43;98369.00;4970856;28;6820;-72
2023/08/03 02:21:07;;;;;;;;;;;;;;;20.09;62.51;98362.97;4986836;28;6827;-74
2023/08/03 02:23:33;;;;;;;;;;;;;;;20.07;62.42;98372.53;4973582;28;7247;-73
2023/08/03 02:26:04;;;;;;;;;;;;;;;20.07;62.46;98369.94;4967114;28;8832;-73
2023/08/03 02:28:30;;;;;;;;;;;;;;;20.06;62.31;98363.03;4954458;28;7288;-73
2023/08/03 02:30:57;;;;;;;;;;;;;;;20.01;62.04;98364.03;4988125;28;7461;-73
2023/08/03 02:33:22;;;;;;;;;;;;;;;19.95;62.12;98383.22;4973673;28;6796;-73
2023/08/03 02:35:47;;;;;;;;;;;;;;;19.91;62.68;98378.97;4988979;28;6792;-74
2023/08/03 02:38:13;;;;;;;;;;;;;;;19.89;62.40;98372.91;4961069;28;7859;-73
2023/08/03 02:40:38;;;;;;;;;;;;;;;19.90;62.84;98380.69;4977264;28;6784;-74
2023/08/03 02:43:04;;;;;;;;;;;;;;;19.94;62.95;98368.50;4960581;28;7026;-73
2023/08/03 02:45:29;;;;;;;;;;;;;;;20.01;62.65;98374.44;4982340;28;6980;-73
2023/08/03 02:47:55;;;;;;;;;;;;;;;20.08;62.88;98376.00;4971316;28;6792;-73
2023/08/03 02:50:21;;;;;;;;;;;;;;;20.13;62.53;98376.72;4974856;28;6787;-73
2023/08/03 02:52:46;;;;;;;;;;;;;;;20.18;62.50;98371.41;4976978;28;6783;-73
2023/08/03 02:55:12;;;;;;;;;;;;;;;20.22;62.77;98386.06;4959364;28;6932;-73
2023/08/03 02:57:37;;;;;;;;;;;;;;;20.27;62.33;98394.59;4989885;28;6907;-74
2023/08/03 03:00:04;;;;;;;;;;;;;;;20.31;62.37;98387.59;4976487;28;7305;-73
2023/08/03 03:02:29;;;;;;;;;;;;;;;20.33;62.07;98384.06;4979902;28;6863;-72
2023/08/03 03:04:55;;;;;;;;;;;;;;;20.36;62.40;98386.59;4997163;28;7175;-74
2023/08/03 03:07:20;;;;;;;;;;;;;;;20.37;62.13;98384.84;4989764;28;6912;-73
2023/08/03 03:09:46;;;;;;;;;;;;;;;20.39;61.93;98401.28;4987031;28;7252;-74
2023/08/03 03:12:11;;;;;;;;;;;;;;;20.38;61.72;98400.44;4983349;28;6792;-75
2023/08/03 03:14:36;;;;;;;;;;;;;;;20.38;61.80;98409.97;4994819;28;6826;-74
2023/08/03 03:17:03;;;;;;;;;;;;;;;20.38;61.86;98400.44;4996540;28;6808;-75
2023/08/03 03:19:28;;;;;;;;;;;;;;;20.39;61.62;98394.34;4990454;28;6796;-74
2023/08/03 03:21:54;;;;;;;;;;;;;;;20.38;61.79;98400.44;4982668;28;7364;-72
2023/08/03 03:24:19;;;;;;;;;;;;;;;20.39;61.74;98412.56;4975224;28;6852;-74
2023/08/03 03:26:45;;;;;;;;;;;;;;;20.38;62.00;98416.03;4984709;28;7121;-72
2023/08/03 03:29:10;;;;;;;;;;;;;;;20.42;61.95;98419.41;4959498;28;7078;-75
2023/08/03 03:31:35;;;;;;;;;;;;;;;20.43;62.06;98415.94;4993852;28;7161;-74
2023/08/03 03:34:01;;;;;;;;;;;;;;;20.45;61.74;98418.47;4993635;28;6958;-74
2023/08/03 03:36:26;;;;;;;;;;;;;;;20.48;61.29;98418.41;4968280;28;7916;-74
2023/08/03 03:38:52;;;;;;;;;;;;;;;20.50;61.54;98414.03;4973370;28;6959;-74
2023/08/03 03:41:17;;;;;;;;;;;;;;;20.48;61.71;98432.28;4985253;28;7263;-75
2023/08/03 03:43:43;;;;;;;;;;;;;;;20.46;61.20;98423.66;4987708;28;7269;-74
2023/08/03 03:46:08;;;;;;;;;;;;;;;20.44;60.92;98429.78;4985497;28;7247;-75
2023/08/03 03:48:34;;;;;;;;;;;;;;;20.41;61.25;98420.28;4991447;28;6795;-75
2023/08/03 03:50:59;;;;;;;;;;;;;;;20.40;61.36;98429.00;4986706;28;6965;-73
2023/08/03 03:53:25;;;;;;;;;;;;;;;20.37;61.48;98434.28;4989559;28;6807;-74
2023/08/03 03:55:50;;;;;;;;;;;;;;;20.36;61.26;98424.78;4979281;28;7122;-76
2023/08/03 03:58:16;;;;;;;;;;;;;;;20.35;61.57;98426.50;4990783;28;6792;-74
2023/08/03 04:00:41;;;;;;;;;;;;;;;20.36;61.49;98422.16;4983225;28;6875;-74
2023/08/03 04:03:07;;;;;;;;;;;;;;;20.36;61.11;98441.22;4973020;28;8139;-75
2023/08/03 04:05:35;;;;;;;;;;;;;;;20.38;61.42;98430.78;4961425;28;6974;-74
2023/08/03 04:08:02;;;;;;;;;;;;;;;20.40;61.08;98449.81;4966325;28;7145;-71
2023/08/03 04:10:28;;;;;;;;;;;;;;;20.42;61.19;98434.16;4946915;28;8264;-72
2023/08/03 04:12:54;;;;;;;;;;;;;;;20.44;61.42;98446.25;4962169;28;6784;-75
2023/08/03 04:15:19;;;;;;;;;;;;;;;20.47;61.21;98435.75;4979635;28;6858;-71
2023/08/03 04:17:48;;;;;;;;;;;;;;;20.50;61.35;98435.69;4961723;28;6812;-74
2023/08/03 04:20:15;;;;;;;;;;;;;;;20.51;61.26;98444.34;4978737;28;6811;-74
2023/08/03 04:22:41;;;;;;;;;;;;;;;20.53;60.83;98439.97;4963960;28;7285;-74
2023/08/03 04:25:07;;;;;;;;;;;;;;;20.56;61.09;98444.25;4979067;28;6915;-74
2023/08/03 04:27:33;;;;;;;;;;;;;;;20.57;61.10;98446.81;4964702;28;6867;-74
2023/08/03 04:29:58;;;;;;;;;;;;;;;20.60;61.07;98431.13;4975923;28;7026;-74
2023/08/03 04:32:24;;;;;;;;;;;;;;;20.62;61.30;98439.75;4964377;28;7157;-74
2023/08/03 04:34:49;;;;;;;;;;;;;;;20.65;61.02;98450.06;4968620;28;6800;-74
2023/08/03 04:37:15;;;;;;;;;;;;;;;20.70;60.96;98459.53;4962352;28;7029;-75
2023/08/03 04:39:40;;;;;;;;;;;;;;;20.73;60.93;98468.13;4964653;28;6889;-72
2023/08/03 04:42:06;;;;;;;;;;;;;;;20.77;60.92;98464.53;4957322;28;6843;-74
2023/08/03 04:44:31;;;;;;;;;;;;;;;20.83;60.94;98475.75;4969325;28;6780;-74
2023/08/03 04:46:57;;;;;;;;;;;;;;;20.87;60.74;98474.75;4965975;28;6991;-74
2023/08/03 04:49:22;;;;;;;;;;;;;;;20.90;60.35;98474.66;4968350;28;6799;-71
2023/08/03 04:51:49;;;;;;;;;;;;;;;20.91;60.28;98472.03;4960446;28;6950;-75
2023/08/03 04:54:15;;;;;;;;;;;;;;;20.95;59.99;98489.28;4962391;28;6816;-74
2023/08/03 04:56:40;;;;;;;;;;;;;;;20.97;60.10;98484.03;4963947;28;6941;-71
2023/08/03 04:59:06;;;;;;;;;;;;;;;20.99;60.23;98484.84;4963968;28;6783;-72
2023/08/03 05:01:32;;;;;;;;;;;;;;;20.99;60.40;98478.81;4951334;28;7367;-72
2023/08/03 05:04:00;;;;;;;;;;;;;;;20.96;59.83;98484.94;4968886;28;6780;-75
2023/08/03 05:06:25;;;;;;;;;;;;;;;20.88;60.01;98487.75;4961481;28;6855;-73
2023/08/03 05:08:51;;;;;;;;;;;;;;;20.79;60.02;98493.13;4974419;28;7323;-73
2023/08/03 05:11:16;;;;;;;;;;;;;;;20.73;59.96;98488.94;4971287;28;6788;-73
2023/08/03 05:13:42;;;;;;;;;;;;;;;20.70;60.37;98490.75;4980835;28;6811;-74
2023/08/03 05:16:07;;;;;;;;;;;;;;;20.67;60.24;98495.16;4979728;28;7541;-73
2023/08/03 05:18:33;;;;;;;;;;;;;;;20.67;60.52;98510.78;4979610;28;6795;-72
2023/08/03 05:20:58;;;;;;;;;;;;;;;20.67;60.19;98510.78;4943738;28;7069;-73
2023/08/03 05:23:24;;;;;;;;;;;;;;;20.68;60.48;98512.47;4980707;28;6784;-74
2023/08/03 05:25:56;;;;;;;;;;;;;;;20.67;60.54;98510.78;4946568;28;6935;-73
2023/08/03 05:28:22;;;;;;;;;;;;;;;20.62;60.27;98506.56;4963593;28;7592;-73
2023/08/03 05:30:48;;;;;;;;;;;;;;;20.50;60.14;98520.72;4969791;28;8960;-71
2023/08/03 05:33:14;;;;;;;;;;;;;;;20.38;60.88;98525.31;4977130;28;6780;-73
2023/08/03 05:35:40;;;;;;;;;;;;;;;20.31;61.01;98523.72;4985951;28;6871;-74
2023/08/03 05:38:05;;;;;;;;;;;;;;;20.26;61.10;98531.63;4983986;28;6791;-72
2023/08/03 05:40:31;;;;;;;;;;;;;;;20.22;61.36;98529.97;4980236;28;6824;-71
2023/08/03 05:42:56;;;;;;;;;;;;;;;20.21;61.49;98537.81;4968134;28;6799;-70
2023/08/03 05:45:40;;;;;;;;;;;;;;;20.18;61.52;98532.66;4960624;28;7183;-69
2023/08/03 05:48:13;;;;;;;;;;;;;;;20.15;61.30;98537.94;4975338;28;6986;-70
2023/08/03 05:50:45;;;;;;;;;;;;;;;20.12;61.56;98533.66;4972222;28;6816;-70
2023/08/03 05:53:11;;;;;;;;;;;;;;;20.07;61.74;98535.50;4992277;28;8012;-69
2023/08/03 05:55:38;;;;;;;;;;;;;;;20.03;61.86;98544.25;4978288;28;7460;-72
2023/08/03 05:58:05;;;;;;;;;;;;;;;20.02;61.81;98539.94;4974913;28;7049;-70
2023/08/03 06:00:30;;;;;;;;;;;;;;;19.98;62.32;98545.19;4986491;28;6955;-73
2023/08/03 06:02:57;;;;;;;;;;;;;;;19.95;62.13;98542.66;4980604;28;7286;-71
2023/08/03 06:05:38;;;;;;;;;;;;;;;19.91;62.31;98561.78;4974630;28;7027;-70
2023/08/03 06:08:12;;;;;;;;;;;;;;;19.83;62.36;98559.31;4976166;28;6938;-71
2023/08/03 06:10:37;;;;;;;;;;;;;;;19.78;62.48;98578.50;4977434;28;7185;-70
2023/08/03 06:13:03;;;;;;;;;;;;;;;19.72;62.64;98576.88;4974180;28;7269;-71
2023/08/03 06:15:29;;;;;;;;;;;;;;;19.69;62.74;98579.50;4988018;28;7860;-72
2023/08/03 06:18:03;;;;;;;;;;;;;;;19.65;63.45;98580.47;4991669;28;7200;-72
2023/08/03 06:20:28;;;;;;;;;;;;;;;19.60;63.02;98577.94;4976676;28;6800;-72
2023/08/03 06:22:54;;;;;;;;;;;;;;;19.58;63.87;98590.13;4972117;28;7080;-72
2023/08/03 06:25:21;;;;;;;;;;;;;;;19.55;63.51;98590.16;4979574;28;6961;-70
2023/08/03 06:27:48;;;;;;;;;;;;;;;19.53;64.00;98597.13;4971617;28;7506;-71
2023/08/03 06:30:14;;;;;;;;;;;;;;;19.50;63.96;98602.38;4971337;28;7370;-71
2023/08/03 06:32:40;;;;;;;;;;;;;;;19.49;64.41;98606.72;4986306;28;6783;-70
2023/08/03 06:35:31;;;;;;;;;;;;;;;19.49;64.72;98605.88;4975479;28;6954;-70
2023/08/03 06:37:59;;;;;;;;;;;;;;;19.50;64.56;98613.63;4974673;28;6812;-70
2023/08/03 06:40:25;;;;;;;;;;;;;;;19.52;64.62;98622.25;4972012;28;6804;-73
2023/08/03 06:42:50;;;;;;;;;;;;;;;19.56;65.19;98616.13;4968951;28;6795;-73
2023/08/03 06:45:16;;;;;;;;;;;;;;;19.62;64.98;98624.69;4982191;28;6890;-71
2023/08/03 06:47:41;;;;;;;;;;;;;;;19.66;65.34;98626.34;4978276;28;7096;-72
2023/08/03 06:50:08;;;;;;;;;;;;;;;19.70;64.68;98620.19;4969838;28;6928;-71
2023/08/03 06:52:34;;;;;;;;;;;;;;;19.74;65.47;98642.66;4970036;28;7090;-71
2023/08/03 06:54:59;;;;;;;;;;;;;;;19.78;65.13;98633.09;4991171;28;7290;-70
2023/08/03 06:57:25;;;;;;;;;;;;;;;19.80;64.78;98650.38;4973962;28;6985;-71
2023/08/03 06:59:50;;;;;;;;;;;;;;;19.83;65.16;98647.72;4953818;28;6984;-70
2023/08/03 07:02:16;;;;;;;;;;;;;;;19.84;65.00;98654.63;4978274;28;7169;-73
2023/08/03 07:04:41;;;;;;;;;;;;;;;19.87;65.29;98658.03;4985462;28;7402;-71
2023/08/03 07:07:08;;;;;;;;;;;;;;;19.87;65.14;98658.03;4975605;28;7072;-70
2023/08/03 07:09:33;;;;;;;;;;;;;;;19.89;65.32;98666.66;4971574;28;6808;-70
2023/08/03 07:11:59;;;;;;;;;;;;;;;19.91;65.34;98673.56;4974464;28;6954;-72
2023/08/03 07:14:25;;;;;;;;;;;;;;;19.99;66.16;98676.06;4975539;28;6865;-70
2023/08/03 07:16:50;;;;;;;;;;;;;;;20.05;65.70;98668.13;4986112;28;6951;-71
2023/08/03 07:19:18;;;;;;;;;;;;;;;20.11;65.46;98694.03;4971750;28;7093;-71
2023/08/03 07:21:43;;;;;;;;;;;;;;;20.19;64.95;98706.06;4973238;28;6951;-72
2023/08/03 07:24:09;;;;;;;;;;;;;;;20.21;64.96;98707.72;4983440;28;6779;-71
2023/08/03 07:26:35;;;;;;;;;;;;;;;20.20;64.81;98712.97;4966780;28;7217;-73
2023/08/03 07:29:01;;;;;;;;;;;;;;;20.17;64.71;98726.00;4988643;28;6796;-71
2023/08/03 07:31:27;;;;;;;;;;;;;;;20.11;64.85;98722.66;4975041;28;7140;-73
2023/08/03 07:33:53;;;;;;;;;;;;;;;20.08;65.09;98725.28;4989900;28;6804;-73
2023/08/03 07:36:19;;;;;;;;;;;;;;;20.04;64.86;98731.44;4972007;28;6795;-72
2023/08/03 07:38:44;;;;;;;;;;;;;;;20.03;65.44;98741.84;4992328;28;7016;-73
2023/08/03 07:41:10;;;;;;;;;;;;;;;20.04;65.55;98747.03;4972993;28;6959;-71
2023/08/03 07:43:35;;;;;;;;;;;;;;;20.09;65.62;98742.63;4975540;28;6951;-73
2023/08/03 07:46:02;;;;;;;;;;;;;;;20.18;66.12;98745.91;4976931;28;7102;-73
2023/08/03 07:48:27;;;;;;;;;;;;;;;20.26;65.62;98760.53;4969991;28;6815;-72
2023/08/03 07:50:52;;;;;;;;;;;;;;;20.34;66.27;98757.78;4991607;28;6787;-71
2023/08/03 07:53:18;;;;;;;;;;;;;;;20.47;66.73;98762.75;4970057;28;7361;-71
2023/08/03 07:55:43;;;;;;;;;;;;;;;20.64;66.86;98765.03;4971678;28;6999;-72
2023/08/03 07:58:11;;;;;;;;;;;;;;;20.84;66.72;98767.25;4972417;28;6958;-73
2023/08/03 08:00:36;;;;;;;;;;;;;;;21.10;66.44;98763.25;4969920;28;6828;-71
2023/08/03 08:03:02;;;;;;;;;;;;;;;21.39;66.24;98768.72;4972180;28;6780;-72
2023/08/03 08:05:27;;;;;;;;;;;;;;;21.60;65.81;98764.75;4971894;28;6937;-72
2023/08/03 08:07:54;;;;;;;;;;;;;;;21.80;64.81;98768.69;4971182;28;6920;-73
2023/08/03 08:10:19;;;;;;;;;;;;;;;21.92;65.05;98784.00;4974613;28;6920;-73
2023/08/03 08:12:45;;;;;;;;;;;;;;;22.00;64.63;98776.84;4988906;28;6792;-73
2023/08/03 08:15:10;;;;;;;;;;;;;;;22.08;64.20;98791.47;4971611;28;7334;-77
2023/08/03 08:17:35;;;;;;;;;;;;;;;22.13;63.89;98792.22;4982239;28;6937;-77
2023/08/03 08:20:01;;;;;;;;;;;;;;;22.16;63.15;98794.75;4977608;28;6947;-76
2023/08/03 08:22:26;;;;;;;;;;;;;;;22.15;62.86;98801.69;4977877;28;6836;-76
2023/08/03 08:24:52;;;;;;;;;;;;;;;22.10;62.65;98805.31;4967937;28;7833;-76
2023/08/03 08:27:17;;;;;;;;;;;;;;;22.02;62.38;98816.81;4972005;28;6792;-75
2023/08/03 08:29:46;;;;;;;;;;;;;;;21.96;62.45;98816.97;4970552;28;6816;-76
2023/08/03 08:32:12;;;;;;;;;;;;;;;21.93;62.69;98827.47;4983663;28;6999;-76
2023/08/03 08:34:38;;;;;;;;;;;;;;;21.95;63.07;98822.22;4978299;28;6983;-76
2023/08/03 08:37:03;;;;;;;;;;;;;;;22.03;63.06;98833.31;4975250;28;7367;-75
2023/08/03 08:39:29;;;;;;;;;;;;;;;22.13;63.07;98831.34;4989102;28;6788;-76
2023/08/03 08:41:55;;;;;;;;;;;;;;;22.21;62.66;98832.00;4989549;28;6947;-76
2023/08/03 08:44:20;;;;;;;;;;;;;;;22.28;62.38;98835.34;4974144;28;7281;-74
2023/08/03 08:46:46;;;;;;;;;;;;;;;22.33;62.25;98842.16;4966658;28;7324;-76
2023/08/03 08:49:12;;;;;;;;;;;;;;;22.41;62.43;98841.09;4977224;28;6855;-77
2023/08/03 08:51:41;;;;;;;;;;;;;;;22.50;62.25;98851.31;4970627;28;6875;-77
2023/08/03 08:54:06;;;;;;;;;;;;;;;22.55;61.95;98846.84;4970635;28;7301;-74
2023/08/03 08:56:32;;;;;;;;;;;;;;;22.64;62.16;98850.94;4983663;28;6871;-75
2023/08/03 08:58:57;;;;;;;;;;;;;;;22.80;62.01;98848.81;4973495;28;6780;-77
2023/08/03 09:01:23;;;;;;;;;;;;;;;22.99;61.51;98843.91;4974599;28;6936;-76
2023/08/03 09:03:55;;;;;;;;;;;;;;;23.17;61.74;98859.97;4979875;28;7019;-77
2023/08/03 09:06:22;;;;;;;;;;;;;;;23.40;62.08;98861.97;4973496;28;6800;-75
2023/08/03 09:08:54;;;;;;;;;;;;;;;23.69;61.17;98862.84;4980723;28;7010;-73
2023/08/03 09:11:36;;;;;;;;;;;;;;;23.96;61.17;98860.28;4975545;28;7142;-76
2023/08/03 09:14:04;;;;;;;;;;;;;;;24.12;60.62;98870.25;4970834;28;7592;-76
2023/08/03 09:16:29;;;;;;;;;;;;;;;24.23;59.37;98876.00;4980983;28;6950;-74
2023/08/03 09:18:55;;;;;;;;;;;;;;;24.28;59.12;98886.31;4980094;28;7110;-75
2023/08/03 09:21:20;;;;;;;;;;;;;;;24.27;58.97;98880.25;4979447;28;6776;-76
2023/08/03 09:23:47;;;;;;;;;;;;;;;24.26;58.22;98890.75;4980362;28;6792;-76
2023/08/03 09:26:13;;;;;;;;;;;;;;;24.15;58.06;98885.88;4990711;28;7394;-73
2023/08/03 09:28:41;;;;;;;;;;;;;;;24.03;57.61;98897.56;4975187;28;7167;-76
2023/08/03 09:31:07;;;;;;;;;;;;;;;23.86;58.32;98900.72;4975664;28;6856;-74
2023/08/03 09:33:34;;;;;;;;;;;;;;;23.69;57.36;98903.81;4976435;28;6868;-76
2023/08/03 09:36:05;;;;;;;;;;;;;;;23.52;57.42;98910.44;4967280;28;7261;-74
2023/08/03 09:38:31;;;;;;;;;;;;;;;23.40;57.89;98916.84;4970117;28;6828;-74
2023/08/03 09:40:58;;;;;;;;;;;;;;;23.41;58.30;98913.34;4960558;28;6960;-75
2023/08/03 09:43:24;;;;;;;;;;;;;;;23.47;58.87;98914.03;4970318;28;6800;-74
2023/08/03 09:45:51;;;;;;;;;;;;;;;23.64;58.65;98922.25;4993977;28;7017;-73
2023/08/03 09:48:18;;;;;;;;;;;;;;;23.78;59.05;98921.00;4974607;28;7221;-74
2023/08/03 09:50:51;;;;;;;;;;;;;;;23.78;58.26;98923.63;4965066;28;7087;-72
2023/08/03 09:53:21;;;;;;;;;;;;;;;23.72;58.16;98933.34;4994488;28;7008;-73
2023/08/03 09:55:58;;;;;;;;;;;;;;;23.78;58.84;98934.94;4973928;28;7249;-74
2023/08/03 09:58:47;;;;;;;;;;;;;;;23.88;58.02;98919.81;4987551;28;7165;-74
2023/08/03 10:01:14;;;;;;;;;;;;;;;23.93;57.55;98933.59;4971288;28;6836;-75
2023/08/03 10:03:46;;;;;;;;;;;;;;;23.91;57.91;98939.81;4978189;28;7004;-75
2023/08/03 10:06:17;;;;;;;;;;;;;;;23.77;57.63;98946.28;4986700;28;7232;-74
2023/08/03 10:09:05;;;;;;;;;;;;;;;23.56;57.67;98945.16;4972668;28;6861;-75
2023/08/03 10:11:35;;;;;;;;;;;;;;;23.32;57.15;98972.84;4974012;28;7026;-75
2023/08/03 10:14:04;;;;;;;;;;;;;;;23.00;57.52;98968.41;4993443;28;6845;-75
2023/08/03 10:16:32;;;;;;;;;;;;;;;22.68;58.26;98969.22;4981244;28;8338;-73
2023/08/03 10:18:58;;;;;;;;;;;;;;;;;;4976612;28;6903;-74
2023/08/03 10:21:23;;;;;;;;;;;;;;;22.43;59.93;98982.84;4976627;28;7009;-74
2023/08/03 10:24:08;;;;;;;;;;;;;;;22.38;59.70;98982.97;4975398;28;6872;-74
2023/08/03 10:26:34;;;;;;;;;;;;;;;22.30;60.23;98982.28;4977011;28;7008;-75
2023/08/03 10:28:59;;;;;;;;;;;;;;;22.43;61.30;98975.88;4962275;28;7168;-73
2023/08/03 10:31:25;;;;;;;;;;;;;;;23.13;62.99;98983.75;4974059;28;7285;-75
2023/08/03 10:33:51;;;;;;;;;;;;;;;24.02;62.39;98984.81;4980422;28;6788;-74
2023/08/03 10:36:28;;;;;;;;;;;;;;;24.82;60.71;98980.63;4992962;28;7054;-74
2023/08/03 10:39:18;;;;;;;;;;;;;;;25.26;59.50;98990.47;4990085;28;7461;-74
2023/08/03 10:41:46;;;;;;;;;;;;;;;25.42;58.25;98989.94;4954496;28;6998;-75
2023/08/03 10:44:12;;;;;;;;;;;;;;;25.40;57.41;98987.38;4974790;28;6954;-76
2023/08/03 10:46:42;;;;;;;;;;;;;;;25.20;56.63;99001.16;4978420;28;6783;-74
2023/08/03 10:49:20;;;;;;;;;;;;;;;24.91;56.93;98995.16;4979601;28;7103;-73
2023/08/03 10:51:52;;;;;;;;;;;;;;;24.63;56.30;99019.66;4971416;28;6804;-74
2023/08/03 10:54:27;;;;;;;;;;;;;;;24.29;56.53;99012.84;4974883;28;6891;-73
2023/08/03 10:57:08;;;;;;;;;;;;;;;24.09;57.28;99014.28;4988495;28;7090;-73
2023/08/03 10:59:37;;;;;;;;;;;;;;;24.30;57.73;99028.50;4990344;28;7271;-73
2023/08/03 11:02:29;;;;;;;;;;;;;;;24.58;58.00;99025.03;4986707;28;7316;-73
2023/08/03 11:05:03;;;;;;;;;;;;;;;24.69;57.26;99022.03;4986766;28;6900;-73
2023/08/03 11:07:34;;;;;;;;;;;;;;;24.66;56.83;99040.47;4957362;28;6855;-73
2023/08/03 11:10:05;;;;;;;;;;;;;;;24.72;57.36;99035.03;4976455;28;6815;-73
2023/08/03 11:12:31;;;;;;;;;;;;;;;24.93;56.05;99035.28;4989897;28;6866;-72
2023/08/03 11:14:59;;;;;;;;;;;;;;;24.99;55.92;99037.69;4992202;28;8024;-73
2023/08/03 11:17:26;;;;;;;;;;;;;;;25.13;55.61;99042.47;4977535;28;6991;-75
2023/08/03 11:19:52;;;;;;;;;;;;;;;25.34;55.70;99042.63;4990379;28;7043;-73
2023/08/03 11:22:23;;;;;;;;;;;;;;;25.55;55.04;99048.94;4992384;28;7856;-74
2023/08/03 11:24:54;;;;;;;;;;;;;;;25.73;54.77;99046.56;4973351;28;6956;-73
2023/08/03 11:27:21;;;;;;;;;;;;;;;25.92;54.76;99052.84;4982769;28;6800;-73
2023/08/03 11:29:47;;;;;;;;;;;;;;;25.96;54.18;99052.72;4983335;28;6808;-74
2023/08/03 11:32:21;;;;;;;;;;;;;;;25.78;53.55;99066.47;4970940;28;7699;-74
2023/08/03 11:34:46;;;;;;;;;;;;;;;25.50;52.91;99056.13;4958730;28;6849;-74
2023/08/03 11:37:12;;;;;;;;;;;;;;;25.23;53.82;99069.25;4986322;28;6871;-74
2023/08/03 11:39:38;;;;;;;;;;;;;;;25.09;54.08;99067.91;4969857;28;6808;-73
2023/08/03 11:42:04;;;;;;;;;;;;;;;25.12;54.26;99066.13;4972959;28;6792;-74
2023/08/03 11:44:30;;;;;;;;;;;;;;;25.04;53.57;99076.84;4973249;28;7287;-73
2023/08/03 11:47:06;;;;;;;;;;;;;;;24.80;53.08;99093.31;4971630;28;6787;-73
2023/08/03 11:49:32;;;;;;;;;;;;;;;24.35;53.00;99081.56;4976669;28;6796;-73
2023/08/03 11:52:01;;;;;;;;;;;;;;;23.91;54.71;99105.47;4973561;28;6808;-73
2023/08/03 11:54:32;;;;;;;;;;;;;;;23.63;55.26;99103.59;4976040;28;6819;-73
2023/08/03 11:59:44;;;;;;;;;;;;;;;23.56;57.90;99112.50;4986752;28;7454;-74
2023/08/03 12:02:10;;;;;;;;;;;;;;;23.96;58.58;99113.19;4984292;28;7377;-75
2023/08/03 12:04:35;;;;;;;;;;;;;;;24.32;57.63;99106.97;4987798;28;6946;-73
2023/08/03 12:07:02;;;;;;;;;;;;;;;24.58;57.16;99119.31;4978413;28;6862;-74
2023/08/03 12:09:29;;;;;;;;;;;;;;;24.77;56.51;99127.44;4969481;28;7368;-74
2023/08/03 12:12:02;;;;;;;;;;;;;;;24.88;55.31;99136.75;4968216;28;10745;-74
2023/08/03 12:14:28;;;;;;;;;;;;;;;24.96;55.06;99134.75;4974644;28;6864;-73
2023/08/03 12:16:53;;;;;;;;;;;;;;;25.08;54.98;99130.91;4978755;28;6787;-74
2023/08/03 12:19:19;;;;;;;;;;;;;;;25.28;54.52;99138.09;4989976;28;6852;-73
2023/08/03 12:21:45;;;;;;;;;;;;;;;25.50;54.30;99140.06;4971791;28;7328;-73
2023/08/03 12:24:11;;;;;;;;;;;;;;;25.70;53.42;99147.22;4971765;28;6795;-74
2023/08/03 12:26:37;;;;;;;;;;;;;;;25.90;53.29;99159.66;4972828;28;6966;-74
2023/08/03 12:29:04;;;;;;;;;;;;;;;26.05;52.88;99153.00;4988320;28;6910;-74
2023/08/03 12:31:31;;;;;;;;;;;;;;;26.09;52.54;99155.50;4971844;28;6843;-74
2023/08/03 12:33:57;;;;;;;;;;;;;;;25.98;51.72;99161.13;4988155;28;6804;-74
2023/08/03 12:36:23;;;;;;;;;;;;;;;25.68;51.12;99170.03;4978539;28;6851;-74
2023/08/03 12:38:48;;;;;;;;;;;;;;;25.33;51.11;99172.91;4990946;28;7043;-73
2023/08/03 12:41:14;;;;;;;;;;;;;;;25.04;51.68;99173.81;4972914;28;7057;-73
2023/08/03 12:43:39;;;;;;;;;;;;;;;24.90;52.65;99169.88;4959063;28;6932;-74
2023/08/03 12:46:05;;;;;;;;;;;;;;;24.99;52.84;99178.38;4981531;28;6783;-74
2023/08/03 12:48:30;;;;;;;;;;;;;;;25.19;52.59;99182.97;4985584;28;6796;-74
2023/08/03 12:50:56;;;;;;;;;;;;;;;25.27;52.28;99188.81;4977378;28;6934;-74
2023/08/03 12:53:24;;;;;;;;;;;;;;;25.21;51.82;99194.28;4984888;28;6966;-76
2023/08/03 12:55:49;;;;;;;;;;;;;;;25.05;51.70;99202.63;4975423;28;6821;-73
2023/08/03 12:58:15;;;;;;;;;;;;;;;24.88;51.99;99211.00;4986559;28;7397;-74
2023/08/03 13:00:41;;;;;;;;;;;;;;;24.64;51.91;99218.63;4971606;28;7014;-75